Saturday, February 28, 2015
06:51 UTC
  |  Log In   |  Register Free
Airport Search:

Hampton Roads Executive Airport
(KPVG)

Hampton Roads Executive Airport Diagram
No Airport Diagram Available

FAA data valid effective January 08, 2015 - March 05, 2015 (unless otherwise noted).

 
 
 
 
 
 
 
 
 
 
 
 
 
 

Current Aviation Weather for Hampton Roads Executive Airport (KPVG)

The most recent METAR observation for KPVG was updated at: 0613
METAR Summary (Translated METAR)
KPVG
280555Z AUTO 04004KT 10SM CLR M03/M07 A3066 RMK AO1 11010 21030 52024
KCPK
280555Z AUTO 01004KT 10SM CLR M01/M04 A3063 RMK AO2
(9.2 nm SE from KPVG)
KSFQ
280555Z AUTO 02006KT 10SM CLR M03/M06 A3063 RMK AO2 T10271063 11011 21032
(9.4 nm SW from KPVG)
TAF
No TAF information found within 50 nm of KPVG
  Airport Weather Conditions for KPVG

 Current Weather at PVG
27° F
Fair
Northeast winds at 4.6 mph
PVG NOAA Radar

Pressure: 30.66 in
Humidity: 74%
Wind: Northeast at 4.6 MPH (4 KT)
Dew Point: 19.4°F
Visibility: 10.00 mi


Airport Weather Forecast for KPVG

Translated METAR and TAF for KPVG
Translated METAR for KPVG (0651 UTC 28 February 2015)
found at http://aviationweather.gov/adds/metars/
 
METAR text: KPVG 280635Z AUTO 04005KT 10SM CLR M03/M08 A3067 RMK AO1
Conditions at: KPVG (NORFOLK/HAMPTON , VA, US) observed 0635 UTC 28 February 2015
Temperature: -3.0°C (27°F)
Dewpoint: -8.0°C (18°F) [RH = 68%]
Pressure (altimeter): 30.67 inches Hg (1038.7 mb)
Winds: from the NE (40 degrees) at 6 MPH (5 knots; 2.6 m/s)
Visibility: 10 or more miles (16+ km)
Ceiling: at least 12,000 feet AGL
Clouds: sky clear below 12,000 feet AGL
Weather: automated observation with no human augmentation;
there may or may not be significant weather present at this time
Translated TAF for KPVG

There is no translated TAF available for this airport

Find All Airport Services Find A Hotel Find A Rental Car Find A Golf Course Find A Restaurant $100 Hamburger



FBO's on the Field
FBO Company Facility Photos Services Transportation Aviation Fuel Prices: Prices include tax
Catering Weather Repair Courtesy Rental Type 100LL JetA JetA+ MOGAS 8087
 
Hampton Roads Executive Airport

This FBO has not yet been rated
FS:Shell
Last Updated: Feb-02
Login to update fuel prices
SS:
Contact Hampton Roads Executive AirportMore FBO Information
 
Add another FBO Facility Photos Catering Weather Repair Courtesy Rental Type 100LL JetA JetA+ MOGAS 8087
Services Transportation Aviation Fuel Prices: Prices include tax


model-print
model-print
model-print
model-print